Time;durP1;ratioP1;P1;durP2;ratioP2;P2;SDS_P1;SDS_P2;PMS_P1;PMS_P2;Temp;Humidity;BMP_temperature;BMP_pressure;BME280_temperature;BME280_humidity;BME280_pressure;Samples;Min_cycle;Max_cycle;Signal;HPM_P1;HPM_P2
2022/09/06 00:00:57;;;;;;;4.70;4.00;;;;;;;20.64;65.50;99503.44;5031684;28;20551;-75
2022/09/06 00:03:23;;;;;;;9.03;4.80;;;;;;;20.60;65.44;99515.41;5029446;28;21012;-75
2022/09/06 00:05:49;;;;;;;5.83;3.40;;;;;;;20.57;65.71;99506.91;5029525;28;20467;-75
2022/09/06 00:08:15;;;;;;;4.83;4.03;;;;;;;20.48;66.10;99514.03;5031039;28;20546;-75
2022/09/06 00:10:41;;;;;;;5.17;4.13;;;;;;;20.38;66.48;99518.69;5030578;28;20848;-75
2022/09/06 00:13:10;;;;;;;4.77;3.70;;;;;;;20.33;66.90;99516.50;5028072;28;20465;-75
2022/09/06 00:15:36;;;;;;;7.20;4.90;;;;;;;20.33;66.67;99506.69;5030166;28;20468;-75
2022/09/06 00:18:04;;;;;;;6.70;4.10;;;;;;;20.34;66.77;99512.84;5030939;28;20487;-75
2022/09/06 00:20:30;;;;;;;4.87;4.20;;;;;;;20.34;66.80;99516.34;5030914;28;20521;-75
2022/09/06 00:22:58;;;;;;;4.37;3.97;;;;;;;20.33;66.71;99517.34;5030826;28;21114;-75
2022/09/06 00:25:24;;;;;;;4.73;4.13;;;;;;;20.33;66.83;99525.34;5031668;28;20776;-75
2022/09/06 00:27:55;;;;;;;7.17;5.13;;;;;;;20.31;67.01;99530.00;5001336;28;20474;-75
2022/09/06 00:30:20;;;;;;;5.20;4.70;;;;;;;20.25;67.34;99530.66;4990473;28;20458;-75
2022/09/06 00:32:45;;;;;;;4.13;3.73;;;;;;;20.21;67.27;99537.31;4998354;28;20462;-75
2022/09/06 00:35:11;;;;;;;6.07;4.03;;;;;;;20.18;67.27;99532.31;4996603;28;20239;-75
2022/09/06 00:37:36;;;;;;;4.90;4.13;;;;;;;20.16;67.15;99534.28;4998627;28;20321;-75
2022/09/06 00:40:02;;;;;;;5.20;3.97;;;;;;;20.15;67.20;99537.97;4999858;28;20419;-75
2022/09/06 00:42:28;;;;;;;4.70;4.00;;;;;;;20.17;67.11;99543.13;4999293;28;20247;-75
2022/09/06 00:44:53;;;;;;;5.30;4.03;;;;;;;20.17;67.09;99527.97;4998516;28;20931;-75
2022/09/06 00:47:19;;;;;;;6.90;4.53;;;;;;;20.18;67.01;99531.47;4998738;28;20215;-75
2022/09/06 00:49:48;;;;;;;10.57;4.43;;;;;;;20.16;67.23;99523.63;4999966;28;20299;-75
2022/09/06 00:52:17;;;;;;;4.53;4.13;;;;;;;20.11;67.21;99528.59;4999923;28;20251;-75
2022/09/06 00:54:43;;;;;;;4.23;3.83;;;;;;;20.06;67.52;99521.09;5000167;28;20452;-75
2022/09/06 00:57:09;;;;;;;5.73;4.10;;;;;;;19.94;67.86;99534.88;4996485;28;20819;-75
2022/09/06 00:59:37;;;;;;;7.20;4.70;;;;;;;19.90;67.97;99534.34;4998209;28;20272;-75
2022/09/06 01:02:04;;;;;;;6.50;4.82;;;;;;;19.88;68.69;99526.50;4996754;28;21006;-75
2022/09/06 01:04:34;;;;;;;4.50;4.10;;;;;;;19.85;68.76;99534.84;4997329;28;20238;-75
2022/09/06 01:07:13;;;;;;;4.63;4.23;;;;;;;19.82;68.80;99536.97;4995234;28;20838;-75
2022/09/06 01:10:29;;;;;;;5.30;4.80;;;;;;;19.74;68.70;99544.91;4991806;28;20840;-75
2022/09/06 01:13:03;;;;;;;6.30;4.80;;;;;;;19.70;68.81;99543.56;4967906;28;20463;-74
2022/09/06 01:15:56;;;;;;;4.83;4.10;;;;;;;19.67;69.06;99542.88;4996746;28;20455;-75
2022/09/06 01:18:35;;;;;;;5.27;4.23;;;;;;;19.64;69.10;99539.69;4998825;28;20494;-74
2022/09/06 01:21:08;;;;;;;6.00;4.03;;;;;;;19.59;69.42;99545.47;4995347;28;20473;-74
2022/09/06 01:23:36;;;;;;;4.97;4.50;;;;;;;19.59;69.18;99540.16;4997292;28;20470;-74
2022/09/06 01:26:20;;;;;;;6.13;5.17;;;;;;;19.56;69.22;99545.78;4995525;28;20814;-74
2022/09/06 01:28:46;;;;;;;6.80;4.70;;;;;;;19.55;69.37;99546.78;4999360;28;20449;-74
2022/09/06 01:31:37;;;;;;;9.63;4.00;;;;;;;19.57;69.02;99546.63;4999161;28;20539;-74
2022/09/06 01:34:06;;;;;;;6.07;4.20;;;;;;;19.58;69.11;99545.66;4999657;28;20488;-74
2022/09/06 01:36:42;;;;;;;5.10;4.27;;;;;;;19.56;68.91;99543.13;5000240;28;20590;-75
2022/09/06 01:39:20;;;;;;;11.03;4.90;;;;;;;19.53;68.81;99548.78;5001754;28;20533;-74
2022/09/06 01:41:46;;;;;;;5.20;4.67;;;;;;;19.49;68.86;99550.06;5003184;28;20487;-74
2022/09/06 01:44:11;;;;;;;4.67;4.20;;;;;;;19.46;68.99;99547.72;5001994;28;20467;-74
2022/09/06 01:46:48;;;;;;;5.20;4.70;;;;;;;19.44;68.95;99547.03;5000752;28;20235;-74
2022/09/06 01:49:27;;;;;;;4.33;3.80;;;;;;;19.42;69.15;99554.38;5000487;28;20266;-74
2022/09/06 01:52:06;;;;;;;6.17;4.03;;;;;;;19.47;68.76;99541.41;5001480;28;20580;-74
2022/09/06 01:54:56;;;;;;;4.20;3.80;;;;;;;19.51;68.68;99552.59;5002186;28;20464;-74
2022/09/06 01:57:57;;;;;;;4.27;3.87;;;;;;;19.50;68.98;99542.94;4997396;28;20501;-74
2022/09/06 02:00:24;;;;;;;8.40;4.60;;;;;;;19.49;68.99;99549.22;4999596;28;20454;-74
2022/09/06 02:03:13;;;;;;;5.77;3.90;;;;;;;19.52;68.68;99547.06;5001793;28;20500;-74
2022/09/06 02:05:52;;;;;;;5.73;4.23;;;;;;;19.59;68.50;99545.47;5000373;28;20716;-74
2022/09/06 02:08:25;;;;;;;4.57;4.17;;;;;;;19.64;68.31;99550.34;4999988;28;20535;-75
2022/09/06 02:10:55;;;;;;;5.70;4.70;;;;;;;19.66;68.50;99549.22;5001194;28;20898;-75
2022/09/06 02:13:24;;;;;;;4.53;3.97;;;;;;;19.62;68.46;99558.47;5015387;28;20451;-74
2022/09/06 02:16:12;;;;;;;4.90;4.50;;;;;;;19.62;68.59;99561.13;4999997;28;20488;-75
2022/09/06 02:18:50;;;;;;;5.23;4.67;;;;;;;19.62;68.62;99560.31;5000916;28;20568;-74
2022/09/06 02:21:18;;;;;;;5.10;4.37;;;;;;;19.61;68.45;99559.47;5002200;28;20485;-74
2022/09/06 02:23:47;;;;;;;7.37;4.90;;;;;;;19.64;68.59;99564.50;5001160;28;21126;-74
2022/09/06 02:26:16;;;;;;;5.03;4.53;;;;;;;19.69;68.52;99564.06;5000110;28;20838;-74
2022/09/06 02:28:42;;;;;;;5.40;4.20;;;;;;;19.69;68.34;99571.22;4998619;28;20459;-74
2022/09/06 02:31:31;;;;;;;6.77;4.83;;;;;;;19.61;68.85;99586.13;4997496;28;20476;-75
2022/09/06 02:33:57;;;;;;;5.93;4.70;;;;;;;19.58;69.35;99586.44;5000764;28;20634;-74
2022/09/06 02:36:23;;;;;;;5.33;3.97;;;;;;;19.53;69.58;99590.56;5000993;28;20297;-74
2022/09/06 02:38:48;;;;;;;6.83;5.83;;;;;;;19.53;69.76;99591.41;4999134;28;20277;-74
2022/09/06 02:41:17;;;;;;;5.60;4.40;;;;;;;19.55;69.11;99584.09;5000577;28;20329;-74
2022/09/06 02:43:43;;;;;;;5.40;4.23;;;;;;;19.59;68.93;99581.94;5001302;28;20586;-74
2022/09/06 02:46:08;;;;;;;5.53;5.03;;;;;;;19.61;68.65;99575.47;5000454;28;20461;-74
2022/09/06 02:48:34;;;;;;;12.87;5.67;;;;;;;19.65;68.38;99576.81;4997552;28;20282;-74
2022/09/06 02:51:04;;;;;;;4.50;3.63;;;;;;;19.70;67.82;99578.22;4997483;28;20336;-74
2022/09/06 02:53:29;;;;;;;7.50;5.13;;;;;;;19.72;67.68;99576.25;4999694;28;20221;-74
2022/09/06 02:55:56;;;;;;;4.97;4.40;;;;;;;19.75;67.58;99571.41;4998078;28;20459;-74
2022/09/06 02:58:21;;;;;;;4.77;4.37;;;;;;;19.79;67.15;99571.94;4997666;28;20228;-74
2022/09/06 03:00:48;;;;;;;4.60;4.10;;;;;;;19.80;67.04;99560.28;4998629;28;20838;-75
2022/09/06 03:03:14;;;;;;;6.13;5.10;;;;;;;19.83;66.71;99557.31;4999168;28;20207;-74
2022/09/06 03:05:41;;;;;;;5.80;4.20;;;;;;;19.85;66.69;99555.31;5016265;28;21044;-74
2022/09/06 03:08:06;;;;;;;4.77;3.93;;;;;;;19.87;66.49;99564.84;4997718;28;20450;-74
2022/09/06 03:10:32;;;;;;;5.07;4.57;;;;;;;19.91;66.58;99569.84;4997418;28;20875;-74
2022/09/06 03:12:57;;;;;;;4.07;3.67;;;;;;;19.91;66.47;99564.53;4999998;28;20314;-74
2022/09/06 03:15:23;;;;;;;5.00;4.17;;;;;;;19.91;66.43;99554.69;5000850;28;20277;-74
2022/09/06 03:17:48;;;;;;;6.10;4.37;;;;;;;19.88;66.50;99558.50;4998682;28;20225;-74
2022/09/06 03:20:14;;;;;;;4.47;4.07;;;;;;;19.87;66.21;99563.97;4999907;28;21125;-74
2022/09/06 03:22:40;;;;;;;6.50;4.63;;;;;;;19.85;66.33;99555.31;5000825;28;20199;-75
2022/09/06 03:25:07;;;;;;;6.33;4.20;;;;;;;19.86;66.30;99559.66;4998013;28;20219;-74
2022/09/06 03:27:33;;;;;;;4.60;4.07;;;;;;;19.85;66.45;99550.00;4998811;28;20750;-74
2022/09/06 03:29:58;;;;;;;5.17;4.30;;;;;;;19.75;66.54;99551.94;5000389;28;20537;-74
2022/09/06 03:32:24;;;;;;;7.67;4.60;;;;;;;19.66;66.95;99557.22;4999181;28;20232;-74
2022/09/06 03:34:49;;;;;;;8.37;4.60;;;;;;;19.60;67.21;99559.63;5000170;28;20257;-74
2022/09/06 03:37:15;;;;;;;6.40;3.93;;;;;;;19.58;67.20;99554.47;4989870;28;20221;-75
2022/09/06 03:39:40;;;;;;;5.10;4.57;;;;;;;19.60;67.06;99554.28;4981464;28;20212;-75
2022/09/06 03:42:06;;;;;;;8.30;4.53;;;;;;;19.60;67.06;99549.78;4996651;28;20371;-74
2022/09/06 03:44:31;;;;;;;5.10;4.17;;;;;;;19.58;67.21;99548.31;4995095;28;20221;-75
2022/09/06 03:46:57;;;;;;;7.37;4.77;;;;;;;19.55;67.26;99541.47;4994332;28;20664;-75
2022/09/06 03:49:23;;;;;;;4.27;3.93;;;;;;;19.52;67.25;99532.94;4999361;28;20500;-73
2022/09/06 03:51:48;;;;;;;4.80;4.40;;;;;;;19.52;67.29;99538.25;4995755;28;20313;-73
2022/09/06 03:54:13;;;;;;;4.60;3.93;;;;;;;19.54;67.37;99538.94;4998813;28;20714;-73
2022/09/06 03:56:39;;;;;;;5.57;4.90;;;;;;;19.56;67.10;99548.44;4996967;28;20245;-73
2022/09/06 03:59:04;;;;;;;5.37;4.30;;;;;;;19.58;67.32;99553.63;4998335;28;20318;-74
2022/09/06 04:01:30;;;;;;;7.33;5.00;;;;;;;19.53;67.58;99550.59;4997367;28;20688;-74
2022/09/06 04:03:55;;;;;;;6.33;4.60;;;;;;;19.50;67.47;99550.94;4999317;28;20217;-73
2022/09/06 04:06:20;;;;;;;5.37;4.90;;;;;;;19.45;67.60;99546.06;4998063;28;20725;-73
2022/09/06 04:08:46;;;;;;;4.90;4.40;;;;;;;19.42;67.69;99546.38;4999858;28;20209;-73
2022/09/06 04:11:11;;;;;;;5.03;4.57;;;;;;;19.42;67.65;99554.38;4995434;28;20281;-73
2022/09/06 04:13:36;;;;;;;6.00;4.60;;;;;;;19.42;67.34;99554.38;4993735;28;20288;-73
2022/09/06 04:16:03;;;;;;;5.00;4.40;;;;;;;19.43;67.75;99551.53;4996635;28;20332;-73
2022/09/06 04:18:29;;;;;;;5.10;4.67;;;;;;;19.43;67.53;99548.03;4997486;28;20848;-74
2022/09/06 04:20:58;;;;;;;5.13;4.63;;;;;;;19.43;67.77;99542.69;4998472;28;20478;-73
2022/09/06 04:23:26;;;;;;;9.10;5.00;;;;;;;19.40;67.61;99549.19;4998619;28;20473;-73
2022/09/06 04:25:54;;;;;;;5.93;4.37;;;;;;;19.39;67.73;99542.19;4998928;28;20453;-74
2022/09/06 04:28:20;;;;;;;7.30;5.50;;;;;;;19.37;67.67;99538.84;4998545;28;20458;-73
2022/09/06 04:30:59;;;;;;;5.33;4.70;;;;;;;19.37;67.99;99540.66;4999713;28;20546;-75
2022/09/06 04:33:26;;;;;;;5.53;4.73;;;;;;;19.35;67.98;99543.47;4999084;28;20585;-73
2022/09/06 04:35:53;;;;;;;5.43;4.93;;;;;;;19.34;67.83;99546.31;4998175;28;20946;-75
2022/09/06 04:38:19;;;;;;;6.87;4.70;;;;;;;19.34;67.84;99549.81;4997606;28;20490;-75
2022/09/06 04:40:44;;;;;;;5.03;4.37;;;;;;;19.32;67.98;99562.44;4997505;28;20490;-75
2022/09/06 04:43:10;;;;;;;6.20;5.30;;;;;;;19.28;68.24;99555.75;4998723;28;20298;-75
2022/09/06 04:45:35;;;;;;;6.83;4.57;;;;;;;19.22;68.19;99559.84;4996989;28;20265;-74
2022/09/06 04:48:01;;;;;;;5.00;4.50;;;;;;;19.19;68.33;99560.16;4997723;28;20225;-75
2022/09/06 04:50:26;;;;;;;7.93;5.13;;;;;;;19.17;68.26;99564.81;4999357;28;20680;-75
2022/09/06 04:53:03;;;;;;;6.17;5.53;;;;;;;19.16;68.52;99560.47;4998112;28;20254;-75
2022/09/06 04:55:30;;;;;;;6.10;4.80;;;;;;;19.15;68.51;99558.81;4998236;28;20873;-75
2022/09/06 04:58:00;;;;;;;5.93;5.33;;;;;;;19.14;68.55;99558.94;4996657;28;20227;-75
2022/09/06 05:00:27;;;;;;;6.07;5.10;;;;;;;19.14;68.66;99553.63;4999217;28;20941;-75
2022/09/06 05:02:52;;;;;;;6.75;5.45;;;;;;;19.15;68.67;99555.31;4998675;28;20479;-75
2022/09/06 05:05:18;;;;;;;7.77;5.07;;;;;;;19.17;68.53;99551.50;5000224;28;20211;-75
2022/09/06 05:07:43;;;;;;;6.40;4.07;;;;;;;19.18;68.51;99558.50;5001346;28;20202;-75
2022/09/06 05:10:09;;;;;;;6.23;5.63;;;;;;;19.23;68.63;99568.69;5001981;28;20286;-75
2022/09/06 05:12:34;;;;;;;6.13;4.83;;;;;;;19.27;68.62;99559.41;5001427;28;20857;-75
2022/09/06 05:15:00;;;;;;;7.20;4.90;;;;;;;19.32;68.42;99565.09;5001455;28;20430;-74
2022/09/06 05:17:25;;;;;;;6.13;5.33;;;;;;;19.40;68.01;99573.16;5001229;28;20222;-75
2022/09/06 05:19:50;;;;;;;10.30;5.07;;;;;;;19.52;68.03;99576.38;5001315;28;20564;-75
2022/09/06 05:22:16;;;;;;;6.80;5.90;;;;;;;19.58;67.54;99574.94;5002117;28;20231;-75
2022/09/06 05:24:41;;;;;;;5.03;4.53;;;;;;;19.60;67.57;99579.09;5002336;28;20218;-75
2022/09/06 05:27:07;;;;;;;5.83;5.13;;;;;;;19.66;67.51;99575.88;5004045;28;20215;-75
2022/09/06 05:29:32;;;;;;;6.50;5.60;;;;;;;19.70;67.20;99591.53;5001558;28;20220;-75
2022/09/06 05:31:58;;;;;;;4.87;4.30;;;;;;;19.74;67.19;99579.56;5002113;28;20235;-75
2022/09/06 05:34:23;;;;;;;7.40;5.07;;;;;;;19.73;67.25;99589.38;5001691;28;20262;-75
2022/09/06 05:36:49;;;;;;;6.83;4.50;;;;;;;19.75;67.12;99595.41;5002473;28;20700;-75
2022/09/06 05:39:14;;;;;;;6.23;5.03;;;;;;;19.77;67.23;99600.59;5000608;28;20227;-75
2022/09/06 05:41:40;;;;;;;6.90;5.00;;;;;;;19.78;66.99;99605.75;5002660;28;20445;-75
2022/09/06 05:44:05;;;;;;;7.70;5.03;;;;;;;19.79;67.14;99607.41;5003358;28;20509;-75
2022/09/06 05:46:30;;;;;;;8.77;5.70;;;;;;;19.80;67.23;99608.28;5003586;28;20216;-75
2022/09/06 05:49:03;;;;;;;7.23;6.57;;;;;;;19.83;67.06;99610.63;5002005;28;20668;-75
2022/09/06 05:51:30;;;;;;;7.50;4.97;;;;;;;19.86;66.86;99610.28;5002099;28;20229;-75
2022/09/06 05:53:55;;;;;;;10.07;5.93;;;;;;;19.94;66.83;99615.69;5001061;28;20993;-74
2022/09/06 05:56:21;;;;;;;7.30;5.43;;;;;;;20.02;66.66;99622.88;5000521;28;20425;-75
2022/09/06 05:58:46;;;;;;;11.63;6.00;;;;;;;20.13;66.24;99611.13;5003340;28;20711;-75
2022/09/06 06:01:18;;;;;;;7.70;5.80;;;;;;;20.21;66.17;99613.81;5002747;28;20489;-75
2022/09/06 06:03:51;;;;;;;5.83;4.63;;;;;;;20.28;65.94;99609.50;4997981;28;20584;-75
2022/09/06 06:06:18;;;;;;;6.33;5.10;;;;;;;20.42;65.90;99616.91;4999450;28;20459;-75
2022/09/06 06:08:43;;;;;;;9.63;5.80;;;;;;;20.52;65.66;99617.63;4998018;28;21009;-75
2022/09/06 06:11:09;;;;;;;6.67;4.87;;;;;;;20.62;65.24;99622.03;5001046;28;20572;-75
2022/09/06 06:13:38;;;;;;;9.63;4.90;;;;;;;20.82;64.98;99623.44;5000735;28;20214;-75
2022/09/06 06:16:05;;;;;;;4.67;4.27;;;;;;;21.20;63.97;99621.16;5000369;28;20196;-75
2022/09/06 06:18:30;;;;;;;7.50;5.67;;;;;;;21.51;62.98;99617.84;5000468;28;21072;-76
2022/09/06 06:21:21;;;;;;;11.00;5.53;;;;;;;21.65;62.22;99614.47;5002350;28;20479;-75
2022/09/06 06:23:50;;;;;;;5.83;4.93;;;;;;;21.73;62.01;99611.78;5001324;28;20455;-75
2022/09/06 06:26:16;;;;;;;9.20;5.33;;;;;;;21.75;62.10;99609.78;5001870;28;20457;-75
2022/09/06 06:28:41;;;;;;;5.50;4.90;;;;;;;21.72;62.17;99604.78;5000175;28;20457;-75
2022/09/06 06:31:09;;;;;;;8.30;5.13;;;;;;;21.67;62.60;99601.78;5001016;28;20226;-75
2022/09/06 06:33:35;;;;;;;6.40;4.67;;;;;;;21.62;63.00;99612.13;5001117;28;20237;-75
2022/09/06 06:36:06;;;;;;;6.70;4.73;;;;;;;21.60;63.37;99615.00;5001633;28;20489;-75
2022/09/06 06:38:38;;;;;;;5.80;4.90;;;;;;;21.58;63.77;99610.81;5000461;28;20896;-75
2022/09/06 06:41:05;;;;;;;7.37;5.33;;;;;;;21.57;63.66;99609.13;4998920;28;20560;-75
2022/09/06 06:43:37;;;;;;;9.20;5.27;;;;;;;21.58;63.56;99611.66;4999460;28;20659;-75
2022/09/06 06:46:16;;;;;;;4.63;4.13;;;;;;;21.62;63.67;99609.47;4998548;28;20465;-75
2022/09/06 06:48:43;;;;;;;5.43;4.90;;;;;;;21.64;63.35;99608.28;4994843;28;20505;-75
2022/09/06 06:51:15;;;;;;;6.70;4.70;;;;;;;21.66;63.12;99608.16;4994347;28;20862;-75
2022/09/06 06:53:42;;;;;;;5.17;4.77;;;;;;;21.62;62.85;99604.13;4994434;28;20831;-75
2022/09/06 06:56:25;;;;;;;5.47;4.63;;;;;;;21.57;63.32;99622.50;4994501;28;20923;-75
2022/09/06 06:58:53;;;;;;;10.20;9.40;;;;;;;21.54;63.27;99631.69;4995325;28;20486;-75
2022/09/06 07:01:20;;;;;;;7.50;6.03;;;;;;;21.54;63.54;99612.16;4985334;28;20540;-75
2022/09/06 07:03:46;;;;;;;7.30;5.33;;;;;;;21.44;64.38;99596.28;4995561;28;20999;-75
2022/09/06 07:06:12;;;;;;;6.53;5.90;;;;;;;21.27;65.40;99587.41;4995286;28;20473;-75
2022/09/06 07:08:38;;;;;;;9.80;6.17;;;;;;;21.24;65.63;99601.09;4995665;28;20505;-75
2022/09/06 07:11:10;;;;;;;9.87;6.40;;;;;;;21.26;66.07;99625.00;4994158;28;20484;-75
2022/09/06 07:13:36;;;;;;;9.47;6.23;;;;;;;21.27;66.35;99632.81;4996314;28;20953;-74
2022/09/06 07:16:07;;;;;;;8.77;5.70;;;;;;;21.30;66.48;99637.00;4996822;28;20492;-74
2022/09/06 07:18:33;;;;;;;6.83;6.13;;;;;;;21.32;66.91;99641.19;4993854;28;20550;-74
2022/09/06 07:20:59;;;;;;;9.20;5.57;;;;;;;21.38;67.11;99645.06;4991258;28;20480;-74
2022/09/06 07:23:24;;;;;;;7.67;5.67;;;;;;;21.42;67.27;99652.56;4996220;28;20803;-74
2022/09/06 07:25:50;;;;;;;7.33;6.07;;;;;;;21.45;67.44;99658.59;4994058;28;20353;-74
2022/09/06 07:28:15;;;;;;;6.67;6.07;;;;;;;21.46;67.67;99652.25;4994471;28;20621;-74
2022/09/06 07:30:40;;;;;;;10.67;6.23;;;;;;;21.45;67.69;99651.41;4990399;28;20251;-74
2022/09/06 07:33:06;;;;;;;13.10;8.13;;;;;;;21.46;68.11;99639.72;4994188;28;20793;-74
2022/09/06 07:35:33;;;;;;;15.07;11.80;;;;;;;21.43;68.50;99626.69;4996641;28;20826;-74
2022/09/06 07:38:00;;;;;;;16.77;12.40;;;;;;;21.41;68.74;99620.66;4993860;28;20223;-75
2022/09/06 07:40:27;;;;;;;9.63;7.73;;;;;;;21.41;68.78;99628.69;4993636;28;20556;-74
2022/09/06 07:42:57;;;;;;;12.50;8.43;;;;;;;21.33;69.43;99640.19;4995551;28;20443;-74
2022/09/06 07:45:23;;;;;;;9.07;7.03;;;;;;;21.31;69.46;99644.88;4995007;28;20863;-74
2022/09/06 07:47:57;;;;;;;6.87;6.07;;;;;;;21.34;69.60;99644.53;4995601;28;21128;-74
2022/09/06 07:50:24;;;;;;;9.60;6.40;;;;;;;21.36;69.56;99642.53;4992889;28;20295;-74
2022/09/06 07:52:49;;;;;;;12.70;9.63;;;;;;;21.35;69.80;99642.69;4992393;28;20468;-74
2022/09/06 07:55:14;;;;;;;9.83;8.80;;;;;;;21.34;69.78;99641.84;4994783;28;20472;-74
2022/09/06 07:57:40;;;;;;;11.80;8.13;;;;;;;21.36;70.06;99641.66;4994556;28;20502;-74
2022/09/06 08:00:08;;;;;;;12.50;8.87;;;;;;;21.34;70.24;99639.19;4991296;28;20224;-74
2022/09/06 08:02:39;;;;;;;12.98;7.90;;;;;;;21.29;70.61;99638.84;4991326;28;20473;-74
2022/09/06 08:05:05;;;;;;;11.57;7.33;;;;;;;21.28;70.90;99645.19;4993808;28;21098;-74
2022/09/06 08:07:30;;;;;;;10.40;7.03;;;;;;;21.27;70.95;99638.16;4994266;28;20996;-74
2022/09/06 08:09:56;;;;;;;6.60;5.47;;;;;;;21.27;71.22;99635.50;4994878;28;20693;-74
2022/09/06 08:12:22;;;;;;;9.77;6.90;;;;;;;21.26;71.51;99635.69;4993471;28;20590;-74
2022/09/06 08:14:48;;;;;;;7.67;5.77;;;;;;;21.27;71.27;99642.69;4993956;28;20284;-74
2022/09/06 08:17:13;;;;;;;6.40;5.83;;;;;;;21.26;71.27;99651.72;4995378;28;20458;-74
2022/09/06 08:19:39;;;;;;;10.00;6.77;;;;;;;21.23;71.84;99666.22;4994266;28;20295;-75
2022/09/06 08:22:04;;;;;;;10.37;7.13;;;;;;;21.20;72.03;99654.03;4993477;28;20705;-74
2022/09/06 08:24:30;;;;;;;10.20;6.07;;;;;;;21.17;72.57;99659.72;4994021;28;20274;-74
2022/09/06 08:26:56;;;;;;;6.90;6.20;;;;;;;21.19;72.44;99667.53;4994722;28;20278;-74
2022/09/06 08:29:21;;;;;;;7.90;7.10;;;;;;;21.20;72.63;99658.53;4995707;28;20962;-74
2022/09/06 08:31:46;;;;;;;8.30;7.00;;;;;;;21.20;72.56;99669.22;4993077;28;20275;-74
2022/09/06 08:34:13;;;;;;;11.53;7.00;;;;;;;21.17;72.90;99680.22;4994067;28;20580;-74
2022/09/06 08:36:38;;;;;;;8.33;6.87;;;;;;;21.12;72.97;99687.91;4993842;28;20565;-74
2022/09/06 08:39:06;;;;;;;10.30;6.63;;;;;;;21.12;73.14;99683.41;4994886;28;21005;-74
2022/09/06 08:41:31;;;;;;;7.60;6.77;;;;;;;21.04;73.65;99693.25;4994042;28;20458;-75
2022/09/06 08:44:02;;;;;;;9.73;6.70;;;;;;;21.02;73.58;99685.38;4995542;28;20471;-75
2022/09/06 08:46:44;;;;;;;7.03;6.33;;;;;;;21.05;73.59;99692.22;4998955;28;20303;-74
2022/09/06 08:49:09;;;;;;;10.40;6.73;;;;;;;21.06;73.36;99675.19;4997969;28;20468;-74
2022/09/06 08:51:36;;;;;;;8.77;7.87;;;;;;;20.99;73.79;99662.50;4997232;28;20517;-75
2022/09/06 08:54:27;;;;;;;10.13;7.80;;;;;;;21.00;73.89;99652.66;4996912;28;20782;-75
2022/09/06 08:57:02;;;;;;;10.30;7.30;;;;;;;21.03;74.23;99619.44;4998758;28;20997;-74
2022/09/06 08:59:33;;;;;;;10.07;7.67;;;;;;;20.99;74.74;99603.75;4998986;28;21032;-74
2022/09/06 09:02:11;;;;;;;7.80;6.67;;;;;;;20.93;74.60;99588.41;4997026;28;20553;-75
2022/09/06 09:04:47;;;;;;;11.40;8.23;;;;;;;20.95;74.99;99580.22;4996907;28;20587;-75
2022/09/06 09:07:15;;;;;;;8.10;7.10;;;;;;;20.97;75.03;99564.84;4997829;28;20457;-76
2022/09/06 09:09:41;;;;;;;8.50;7.70;;;;;;;21.08;74.85;99558.34;4995902;28;20468;-76
2022/09/06 09:12:10;;;;;;;10.30;7.70;;;;;;;21.17;74.96;99549.34;4994838;28;20529;-76
2022/09/06 09:14:41;;;;;;;16.53;6.70;;;;;;;21.26;75.04;99539.50;4993550;28;20619;-76
2022/09/06 09:17:19;;;;;;;10.37;7.37;;;;;;;21.41;75.21;99525.31;4997983;28;21081;-77
2022/09/06 09:19:45;;;;;;;8.87;6.13;;;;;;;21.54;74.89;99524.78;4995333;28;20878;-77
2022/09/06 09:22:16;;;;;;;9.60;6.80;;;;;;;21.72;74.12;99518.41;4995431;28;20832;-77
2022/09/06 09:24:42;;;;;;;6.27;5.60;;;;;;;21.92;73.59;99524.19;4997243;28;20217;-76
2022/09/06 09:27:09;;;;;;;6.53;5.40;;;;;;;22.11;72.86;99526.44;4996771;28;20826;-76
2022/09/06 09:29:53;;;;;;;8.80;6.17;;;;;;;22.33;72.38;99527.53;4997316;28;20221;-77
2022/09/06 09:32:33;;;;;;;8.27;5.10;;;;;;;22.52;71.64;99521.75;4996282;28;20603;-77
2022/09/06 09:35:19;;;;;;;9.77;4.33;;;;;;;22.80;70.58;99520.41;4996871;28;20462;-77
2022/09/06 09:37:46;;;;;;;8.50;4.73;;;;;;;23.03;69.75;99507.00;4997445;28;21154;-76
2022/09/06 09:40:23;;;;;;;7.30;5.57;;;;;;;23.29;68.85;99517.34;4998413;28;20545;-76
2022/09/06 09:42:49;;;;;;;7.40;6.07;;;;;;;23.52;68.42;99519.94;4997194;28;20425;-77
2022/09/06 09:45:44;;;;;;;6.03;5.03;;;;;;;23.76;68.53;99524.25;4995909;28;20451;-76
2022/09/06 09:48:39;;;;;;;6.77;5.17;;;;;;;23.96;68.20;99524.53;4993024;28;20208;-76
2022/09/06 09:51:18;;;;;;;10.80;5.50;;;;;;;24.14;67.43;99524.13;4982849;28;20489;-76
2022/09/06 09:53:59;;;;;;;10.33;5.40;;;;;;;24.31;67.19;99525.59;4996438;28;20907;-77
2022/09/06 09:56:34;;;;;;;6.60;4.00;;;;;;;24.57;66.89;99537.66;4994330;28;21050;-76
2022/09/06 09:59:01;;;;;;;5.70;4.57;;;;;;;24.85;66.26;99529.72;4998064;28;20481;-76
2022/09/06 10:01:30;;;;;;;5.17;4.30;;;;;;;25.25;65.15;99533.59;4989476;28;20546;-77
2022/09/06 10:04:02;;;;;;;6.30;4.30;;;;;;;25.65;64.08;99535.72;4996090;28;20438;-77
2022/09/06 10:06:28;;;;;;;11.93;5.97;;;;;;;25.95;63.09;99536.34;4995910;28;20441;-77
2022/09/06 10:08:54;;;;;;;6.10;4.23;;;;;;;26.23;61.89;99537.13;4996333;28;20440;-76
2022/09/06 10:11:39;;;;;;;6.00;4.30;;;;;;;26.49;61.44;99533.69;4997062;28;20233;-77
2022/09/06 10:14:21;;;;;;;7.07;4.40;;;;;;;26.75;60.93;99545.59;4996271;28;20447;-76
2022/09/06 10:16:47;;;;;;;9.07;4.60;;;;;;;26.80;59.96;99531.50;4997403;28;21017;-77
2022/09/06 10:19:22;;;;;;;5.60;4.37;;;;;;;26.72;59.40;99537.09;4996663;28;20524;-76
2022/09/06 10:21:52;;;;;;;4.73;3.90;;;;;;;26.72;59.37;99529.00;4997667;28;20348;-77
2022/09/06 10:25:02;;;;;;;5.67;3.60;;;;;;;26.72;59.20;99526.31;4997840;28;20966;-76
2022/09/06 10:27:28;;;;;;;7.47;4.83;;;;;;;26.79;58.99;99522.59;4964529;28;20450;-77
2022/09/06 10:30:06;;;;;;;8.03;4.70;;;;;;;26.94;58.57;99522.41;4999563;28;20495;-75
2022/09/06 10:32:40;;;;;;;9.57;4.53;;;;;;;27.10;57.61;99518.47;5028449;28;20217;-75
2022/09/06 10:35:30;;;;;;;4.90;4.20;;;;;;;27.15;57.74;99521.38;5029234;28;21046;-75
2022/09/06 10:38:14;;;;;;;6.70;4.13;;;;;;;27.18;57.38;99523.69;5016838;28;20470;-75
2022/09/06 10:40:53;;;;;;;6.13;5.20;;;;;;;27.15;57.68;99521.38;5029538;28;20459;-75
2022/09/06 10:43:21;;;;;;;6.93;3.27;;;;;;;27.14;57.80;99520.56;5028210;28;20706;-75
2022/09/06 10:45:57;;;;;;;4.90;3.33;;;;;;;27.09;57.73;99517.66;5029877;28;20440;-75
2022/09/06 10:48:31;;;;;;;4.93;3.90;;;;;;;27.06;57.87;99525.31;5026709;28;20444;-75
2022/09/06 10:51:02;;;;;;;5.93;3.90;;;;;;;27.18;56.91;99533.66;5029261;28;20461;-75
2022/09/06 10:53:34;;;;;;;8.77;4.77;;;;;;;27.15;56.65;99532.97;5028978;28;20446;-75
2022/09/06 10:56:07;;;;;;;4.37;3.30;;;;;;;27.08;56.45;99542.94;5028439;28;20440;-75
2022/09/06 10:58:41;;;;;;;5.53;4.40;;;;;;;27.06;56.35;99533.41;5026866;28;20565;-75
2022/09/06 11:01:17;;;;;;;5.50;3.87;;;;;;;27.08;55.74;99531.31;5027534;28;20456;-75
2022/09/06 11:03:44;;;;;;;6.93;3.87;;;;;;;27.07;55.24;99540.44;5028195;28;20469;-75
2022/09/06 11:06:11;;;;;;;3.80;3.50;;;;;;;27.10;55.47;99540.84;5026127;28;20472;-76
2022/09/06 11:08:50;;;;;;;4.60;4.10;;;;;;;27.18;54.95;99545.25;5027815;28;20825;-75
2022/09/06 11:11:25;;;;;;;6.40;3.93;;;;;;;27.24;55.12;99540.91;5029137;28;20961;-75
2022/09/06 11:13:50;;;;;;;6.13;3.60;;;;;;;27.30;54.63;99546.31;5027394;28;20774;-75
2022/09/06 11:16:29;;;;;;;9.20;4.30;;;;;;;27.35;54.33;99532.16;5023665;28;20468;-75
2022/09/06 11:19:01;;;;;;;8.67;4.00;;;;;;;27.41;54.78;99520.56;5027600;28;20227;-75
2022/09/06 11:21:35;;;;;;;9.57;6.50;;;;;;;27.56;54.73;99525.72;5029048;28;20463;-75
2022/09/06 11:24:33;;;;;;;8.60;4.60;;;;;;;27.70;54.70;99516.56;5030163;28;20443;-75
2022/09/06 11:27:24;;;;;;;5.47;4.00;;;;;;;27.77;54.54;99519.25;5025684;28;20991;-75
2022/09/06 11:29:55;;;;;;;5.77;3.93;;;;;;;27.92;54.02;99527.97;5025432;28;20497;-76
2022/09/06 11:32:43;;;;;;;4.43;4.03;;;;;;;28.04;53.31;99528.13;5029402;28;20850;-75
2022/09/06 11:35:33;;;;;;;8.30;4.60;;;;;;;28.08;53.04;99526.63;5027769;28;21451;-75
2022/09/06 11:38:17;;;;;;;5.80;4.73;;;;;;;28.12;53.13;99527.88;5012068;28;20863;-76
2022/09/06 11:40:51;;;;;;;4.67;4.27;;;;;;;28.08;52.75;99531.22;5024228;28;20477;-75
2022/09/06 11:43:40;;;;;;;7.90;3.57;;;;;;;28.01;53.12;99536.66;5023870;28;20888;-75
2022/09/06 11:46:06;;;;;;;9.13;3.70;;;;;;;27.93;53.01;99545.81;5026142;28;21346;-75